Terminal Aerodrome Forecast
Issued by NWS

Current Version | Previous Version | Graphics & Text | Print | Product List | Glossary On
Versions: 1 2 3 4 5 6 7 8 9 10 11 12 13 14 15 16 17 18
000
FTUS41 KRNK 230535
TAFLWB
TAF
KLWB 230535Z 2306/2406 08006KT P6SM OVC013
      TEMPO 2314/2316 4SM -RA BR
     FM231600 09006KT 2SM -RA BR OVC020
     FM232200 08006KT 4SM RA BR OVC015
     FM240000 08006KT 4SM RA BR OVC007=

USA.gov is the U.S. government's official web portal to all federal, state and local government web resources and services.